Du har inga inställningar för hoppväder.nu

Hoppväder.nu

Senast uppdaterat 00:32

UTC-tid

2018-10-19 kl. 22:32


Sol och måne

Solen går upp 7:54 och går ner 17:15 (beräknade cirkatider)
Nästa fullmåne blir om 4 dagar (2018-10-24)

METAR

ESSA (Arlanda, Stockholm)
(12 minuter sedan)
ESSA 192220Z 19003KT CAVOK 01/00 Q1020 NOSIG=



ESSD (Borlänge)
(12 minuter sedan)
ESSD 192220Z AUTO 15001KT 9999 FEW110/// BKN140/// OVC160/// 04/02 Q1019=



EFMA (Mariehamn)
(12 minuter sedan)
EFMA 192220Z AUTO 00000KT CAVOK 00/M01 Q1020=



ESOW (Västerås)
(12 minuter sedan)
ESOW 192220Z AUTO 08003KT 9999 FEW100/// BKN130/// OVC200/// 01/00 Q1021=






TAF

ESSA (Arlanda, Stockholm)
(302 minuter sedan)
ESSA 191730Z 1918/2018 24004KT CAVOK PROB40 1922/2006 3000 MIFG PROB40 2006/2009 BKN006=



ESSD (Borlänge)
ESSD



EFMA (Mariehamn)
(125 minuter sedan)
EFMA 192027Z 1921/2006 25003KT CAVOK PROB40 1921/2006 3000 BR=



ESOW (Västerås)
ESOW





Kodnycklar till TAF och METAR






LHP

(Gryttjom är område F2c i Norra delen)

Prognos är inte uppdaterad
ÄNDRAD ÖVERSIKT FÖR OMRÅDE B UTFÄRDAD 191320
GÄLLANDE DEN 19 OKTOBER 2018 MELLAN 12 OCH 20 UTC


Väderöversikt

En högtrycksrygg täcker södra Sverige Under dagen rör sig fuktigare luft in över Götaland från väster

Sikt under 5 kilometer eller molnbas under 1000 fot
14-16UTC: Område Nordvästra delen
16-20UTC: Område Nordvästra delen och Södra delen


Måttlig eller svår isbildning
Väntas inte förekomma under perioden

Måttlig eller svår turbulens
Väntas inte förekomma under perioden

ÄNDRAD PROGNOS FÖR OMRÅDE B DEN NORRA DELEN UTFÄRDAD 191320
GÄLLANDE DEN 19 OKTOBER 2018 MELLAN 12 OCH 20 UTC

Måttlig eller svår turbulens
12-20UTC: I hela området: Väntas inte förekomma under perioden

Måttlig eller svår isbildning
12-20UTC: I hela området: Väntas inte förekomma under perioden

Sikt/Väder/Moln
12-20UTC: I hela området: Sikt >8km. Molnbas >2000ft.

Molnöversida
12-20UTC: I hela området: Ingen prognos

CB/TCU Moln
12-20UTC: I hela området: Väntas inte förekomma under perioden

Nollgradersisoterm
12-14UTC: Noll grader 4500ft - FL060.
14-16UTC: Noll grader FL050 - FL065.
16-18UTC: Noll grader FL050 - FL060.
18-20UTC: Noll grader FL055 - FL065.

Vind vid marken
12-14UTC: Område F2a: SV-V/0-6 knop, byar upp till 11 knop.
Område F1a: SV-V/2-10 knop, byar upp till 13 knop.
Område F1b: V/2-11 knop, byar upp till 14 knop.
Område F2d: V/2-4 knop.
Område F2c: SV-V/2-5 knop.

12-18UTC: Område F2b: Lugnt.

14-16UTC: Område F1a: SV/1-9 knop.
Område F1b: SV-V/1-8 knop.
Område F2d: SV/1-4 knop.
Område F2c: S-SV/1-4 knop.

14-18UTC: Område F2a: SV/0-6 knop.

16-18UTC: Område F2c: S-SV/1-5 knop.
Område F1a: SV/2-10 knop.
Område F2d: SV/0-4 knop.
Område F1b: SV-V/1-11 knop, byar upp till 13 knop.

18-20UTC: Område F1a: SV/2-11 knop, byar upp till 13 knop.
Område F2c: S-SV/0-4 knop.
Område F1b: SV-V/1-11 knop, byar upp till 14 knop.
Område F2a: SV/0-5 knop.
Område F2d: Lugnt.
Område F2b: SV/0-4 knop.


Vind och temperatur
2000ft:
12-16UTC: 290/15kt +2.
16-18UTC: 270/14kt +3.
18-20UTC: 250/13kt +3.

FL50:
12-14UTC: 290/20kt -2.
14-16UTC: 290/18kt -1.
16-18UTC: 280/14kt -1.
18-20UTC: 270/11kt -1.

FL100:
12-14UTC: 260/21kt -7.
14-16UTC: 270/22kt -7.
16-20UTC: 280/21kt -8.

Lägsta QNH
1018 hPa.

OBS! endast utbredd måttlig eller svår isbildning och turbulens prognostiseras i LLF.
Avsaknad av isbildning och turbulens i prognosen utesluter inte förekomst av lätt isbildning och turbulens.
För indikation på lätt isbildning, var vänlig kontrollera om prognosen för molntopp ligger högre än nollgradersisotermen.
Förekomst av TCU eller CB medför alltid en risk för måttlig eller svår isbildning och turbulens även om det inte framgår explicit av prognosen.

ÖVERSIKTLIG PROGNOS FÖR OMRÅDE B UTFÄRDAD 191306
GÄLLANDE DEN 20 OKTOBER 2018 MELLAN 04 OCH 16 UTC


Väderöversikt
En kallfront passerar österut över Götaland och Svealand under morgonen
NORRA DELEN


Sikt/Väder/Moln
04-08UTC: Område F1b,F2b,F2c,F2d: Sikt 5km - >8km i dis, regn. Molnbas 500ft - >2000ft.

04-16UTC: Område F1a,F2a: Sikt >8km. Molnbas >2000ft.

08-12UTC: Område F2b,F2c,F2d: Sikt 5km - >8km i dis. Molnbas 500ft - >2000ft.

08-16UTC: Område F1b: Sikt >8km. Molnbas >2000ft.

12-16UTC: Område F2b,F2c,F2d: Sikt >8km. Molnbas >2000ft.


CB/TCU Moln
04-16UTC: I hela området: Väntas inte förekomma under perioden

Vind vid marken
04-08UTC: Område F2d: SV/1-3 knop.
Område F2b: SV-V/0-4 knop.
Område F2c: SV/0-5 knop.
Område F1a,F1b: SV/1-10 knop, byar upp till 13 knop.
Område F2a: SV/0-7 knop, byar upp till 11 knop.

08-12UTC: Område F1b: SV-V/1-11 knop, byar upp till 15 knop.
Område F2b: W-NV/1-6 knop.
Område F2a: V/1-6 knop, byar upp till 14 knop.
Område F1a: SV-V/2-11 knop, byar upp till 16 knop.
Område F2c: V/0-5 knop, byar upp till 11 knop.
Område F2d: V/1-4 knop, byar upp till 12 knop.

12-16UTC: Område F1a: W-NV/0-7 knop, byar upp till 11 knop.
Område F2d: W-NV/0-6 knop.
Område F2a: NV/0-7 knop, byar upp till 14 knop.
Område F2b: NV/3-6 knop, byar upp till 14 knop.
Område F2c: W-NV/0-5 knop, byar upp till 12 knop.
Område F1b: V/1-9 knop, byar upp till 13 knop.





Spotting

Hur fungerar spotthjälpen och Vindkartan?

Markvind är ca 0 m/s.
Vind på 600 m ca 0 m/s.
Vind på 1500 m ca 0 m/s.
Vind på 3000 m ca 0 m/s.
SE-GEE flyger ca 45 m/s över marken på finalen.
Du driver ca 0 m bakåt i frifall. (0 m)
Lämplig spot är 6 sekunder eller 272 m innan gropen.
(-6s eller -272 m)
För små grupper eller ensamhoppare bör man vänta 3-5 sekunder mellan grupperna.
För större grupper bör man vänta 7-8 sekunder mellan grupperna.


Vindkartan

Senast uppdaterad 00:32




All data kommer från LFV.se